Time;durP1;ratioP1;P1;durP2;ratioP2;P2;SDS_P1;SDS_P2;PMS_P1;PMS_P2;Temp;Humidity;BMP_temperature;BMP_pressure;BME280_temperature;BME280_humidity;BME280_pressure;Samples;Min_cycle;Max_cycle;Signal;HPM_P1;HPM_P2
2021/01/12 00:00:28;;;;;;;5.9;3.5;;;;;;;-4.54;69.68652;938.6286;;;;
2021/01/12 00:02:53;;;;;;;3.7;2.6;;;;;;;-4.5;69.38672;938.6182;;;;
2021/01/12 00:05:18;;;;;;;2.3;1.9;;;;;;;-4.6;69.84277;938.5914;;;;
2021/01/12 00:07:43;;;;;;;3.4;2;;;;;;;-4.62;69.77344;938.5592;;;;
2021/01/12 00:10:08;;;;;;;3.8;2.5;;;;;;;-4.68;69.80859;938.6022;;;;
2021/01/12 00:12:34;;;;;;;2.8;2.3;;;;;;;-4.89;70.47754;938.4589;;;;
2021/01/12 00:14:59;;;;;;;2.2;1.6;;;;;;;-4.76;70.23535;938.5956;;;;
2021/01/12 00:17:24;;;;;;;3.6;2.6;;;;;;;-4.86;70.24121;938.5839;;;;
2021/01/12 00:19:49;;;;;;;5.6;2.2;;;;;;;-4.86;70.45996;938.4656;;;;
2021/01/12 00:22:17;;;;;;;3.3;2;;;;;;;-4.83;70.28809;938.5489;;;;
2021/01/12 00:24:39;;;;;;;3.6;1.9;;;;;;;-4.83;69.9707;938.6139;;;;
2021/01/12 00:27:05;;;;;;;4.4;2.2;;;;;;;-4.89;70.50977;938.653;;;;
2021/01/12 00:29:30;;;;;;;4.8;2.5;;;;;;;-4.83;70.34473;938.6881;;;;
2021/01/12 00:31:55;;;;;;;3.4;1.8;;;;;;;-4.85;69.9873;938.6281;;;;
2021/01/12 00:34:21;;;;;;;3;2.2;;;;;;;-4.77;69.79199;938.4663;;;;
2021/01/12 00:36:46;;;;;;;4.2;2.4;;;;;;;-4.76;69.94824;938.5549;;;;
2021/01/12 00:39:12;;;;;;;2.2;2;;;;;;;-4.81;69.91992;938.4755;;;;
2021/01/12 00:41:37;;;;;;;3.5;1.9;;;;;;;-4.87;70.38086;938.4761;;;;
2021/01/12 00:44:02;;;;;;;3.5;1.8;;;;;;;-4.87;70.28223;938.3923;;;;
2021/01/12 00:46:28;;;;;;;2.3;2.1;;;;;;;-4.93;70.48242;938.3938;;;;
2021/01/12 00:48:53;;;;;;;1.7;1.5;;;;;;;-4.99;70.6582;938.3895;;;;
2021/01/12 00:51:20;;;;;;;3.9;2.1;;;;;;;-5.06;70.88867;938.2985;;;;
2021/01/12 00:53:45;;;;;;;2.5;1.8;;;;;;;-5.12;70.93457;938.2434;;;;
2021/01/12 00:56:10;;;;;;;2.8;2;;;;;;;-5.2;71.01953;938.2427;;;;
2021/01/12 00:58:35;;;;;;;3.2;1.6;;;;;;;-5.26;71.2832;938.2377;;;;
2021/01/12 01:01:00;;;;;;;4.5;1.4;;;;;;;-5.27;71.26953;938.2466;;;;
2021/01/12 01:03:25;;;;;;;2.7;1.5;;;;;;;-5.25;71.24121;938.1847;;;;
2021/01/12 01:05:50;;;;;;;4.2;1.3;;;;;;;-5.47;71.70996;938.2022;;;;
2021/01/12 01:08:15;;;;;;;1.9;1.2;;;;;;;-5.67;72.40137;938.1685;;;;
2021/01/12 01:10:43;;;;;;;5.8;2.3;;;;;;;-5.68;72.72949;938.2155;;;;
2021/01/12 01:13:08;;;;;;;2.6;1.7;;;;;;;-5.78;72.86523;938.1496;;;;
2021/01/12 01:15:33;;;;;;;1.5;1.4;;;;;;;-5.69;72.2207;938.1252;;;;
2021/01/12 01:17:59;;;;;;;1.2;0.8;;;;;;;-5.55;71.8291;938.2364;;;;
2021/01/12 01:20:24;;;;;;;1.9;0.8;;;;;;;-5.43;71.46191;938.2533;;;;
2021/01/12 01:22:49;;;;;;;1.3;1.2;;;;;;;-5.43;71.68359;938.3002;;;;
2021/01/12 01:25:14;;;;;;;1.4;1.3;;;;;;;-5.43;71.59375;938.3184;;;;
2021/01/12 01:27:39;;;;;;;3.2;1.3;;;;;;;-5.62;71.77148;938.3038;;;;
2021/01/12 01:30:04;;;;;;;2;1.4;;;;;;;-5.79;72.31348;938.3806;;;;
2021/01/12 01:32:29;;;;;;;1.4;1.1;;;;;;;-5.8;72.58594;938.3494;;;;
2021/01/12 01:34:55;;;;;;;0.8;0.8;;;;;;;-5.8;72.74121;938.4009;;;;
2021/01/12 01:37:20;;;;;;;0.9;0.9;;;;;;;-5.77;72.69141;938.2408;;;;
2021/01/12 01:39:46;;;;;;;0.8;0.8;;;;;;;-5.51;72.59277;938.3195;;;;
2021/01/12 01:42:11;;;;;;;2.5;1;;;;;;;-5.17;71.75;938.2733;;;;
2021/01/12 01:44:36;;;;;;;1.2;1.1;;;;;;;-5.01;71.18359;938.2971;;;;
2021/01/12 01:47:01;;;;;;;2.2;1.5;;;;;;;-4.92;70.76855;938.2659;;;;
2021/01/12 01:49:26;;;;;;;1;0.9;;;;;;;-4.82;70.06934;938.1863;;;;
2021/01/12 01:51:52;;;;;;;2;1.7;;;;;;;-4.84;70.14355;938.1719;;;;
2021/01/12 01:54:17;;;;;;;1.1;0.7;;;;;;;-4.97;69.42969;938.1101;;;;
2021/01/12 01:56:42;;;;;;;1.9;0.9;;;;;;;-4.94;69.45703;938.1236;;;;
2021/01/12 01:59:07;;;;;;;0.6;0.5;;;;;;;-4.68;69.7207;938.0524;;;;
2021/01/12 02:01:32;;;;;;;0.6;0.6;;;;;;;-4.65;69.02051;937.9813;;;;
2021/01/12 02:03:57;;;;;;;3.5;1;;;;;;;-4.51;69.08691;938.0075;;;;
2021/01/12 02:06:22;;;;;;;4.9;1.3;;;;;;;-4.32;68.56641;938.0885;;;;
2021/01/12 02:08:47;;;;;;;1;0.9;;;;;;;-4.36;67.60156;938.1211;;;;
2021/01/12 02:11:13;;;;;;;2.1;1.1;;;;;;;-4.35;68.17773;938.1357;;;;
2021/01/12 02:13:38;;;;;;;1.4;1;;;;;;;-4.22;67.93262;938.2103;;;;
2021/01/12 02:16:03;;;;;;;1.1;0.9;;;;;;;-4.15;67.10547;938.2045;;;;
2021/01/12 02:18:28;;;;;;;0.6;0.6;;;;;;;-3.95;66.85059;938.1395;;;;
2021/01/12 02:20:54;;;;;;;0.9;0.9;;;;;;;-3.87;66.26758;938.1733;;;;
2021/01/12 02:23:19;;;;;;;3;1;;;;;;;-3.91;66.50293;938.1654;;;;
2021/01/12 02:25:44;;;;;;;1.1;0.9;;;;;;;-4.08;67.04004;938.1205;;;;
2021/01/12 02:28:09;;;;;;;0.7;0.7;;;;;;;-3.97;67.13477;938.1501;;;;
2021/01/12 02:30:34;;;;;;;9.1;1.9;;;;;;;-3.89;67.76563;938.1184;;;;
2021/01/12 02:33:00;;;;;;;1.5;1.3;;;;;;;-3.73;67.2168;938.0591;;;;
2021/01/12 02:35:25;;;;;;;1;0.8;;;;;;;-3.7;67.1875;937.9802;;;;
2021/01/12 02:37:51;;;;;;;0.6;0.6;;;;;;;-3.64;67.3418;937.86;;;;
2021/01/12 02:40:16;;;;;;;0.6;0.5;;;;;;;-3.67;67.13867;937.8242;;;;
2021/01/12 02:42:41;;;;;;;1.1;0.9;;;;;;;-3.7;66.83496;937.8223;;;;
2021/01/12 02:45:06;;;;;;;0.7;0.7;;;;;;;-4;67.96777;937.829;;;;
2021/01/12 02:47:31;;;;;;;3.7;1.4;;;;;;;-4.23;69.28711;937.8239;;;;
2021/01/12 02:49:57;;;;;;;0.8;0.8;;;;;;;-4.26;69.49219;937.8179;;;;
2021/01/12 02:52:22;;;;;;;0.5;0.5;;;;;;;-4.22;69.68555;937.7153;;;;
2021/01/12 02:54:46;;;;;;;0.7;0.6;;;;;;;-4.27;69.00586;937.6369;;;;
2021/01/12 02:57:12;;;;;;;1;0.9;;;;;;;-4.51;70.00098;937.6231;;;;
2021/01/12 02:59:38;;;;;;;1.1;0.6;;;;;;;-4.48;68.28809;937.6151;;;;
2021/01/12 03:02:03;;;;;;;2.7;1.1;;;;;;;-4.47;70.07324;937.543;;;;
2021/01/12 03:04:28;;;;;;;1.1;0.6;;;;;;;-4.55;69.43359;937.486;;;;
2021/01/12 03:06:53;;;;;;;1.7;0.6;;;;;;;-4.58;69.87891;937.4008;;;;
2021/01/12 03:09:18;;;;;;;1.5;0.5;;;;;;;-4.51;70.05762;937.2838;;;;
2021/01/12 03:11:44;;;;;;;3.9;0.6;;;;;;;-4.37;69.41895;937.2203;;;;
2021/01/12 03:14:10;;;;;;;0.7;0.7;;;;;;;-4.25;68.74414;937.147;;;;
2021/01/12 03:16:35;;;;;;;1;0.8;;;;;;;-4.12;68.61133;937.1032;;;;
2021/01/12 03:19:01;;;;;;;1.2;1;;;;;;;-4.13;68.80762;937.0706;;;;
2021/01/12 03:21:26;;;;;;;1.6;0.7;;;;;;;-4.13;68.27832;936.8904;;;;
2021/01/12 03:23:51;;;;;;;10.4;1.8;;;;;;;-4.08;68.80566;936.86;;;;
2021/01/12 03:26:16;;;;;;;0.8;0.8;;;;;;;-4.08;68.47461;936.8694;;;;
2021/01/12 03:28:41;;;;;;;1.5;0.8;;;;;;;-4.01;67.88867;936.8644;;;;
2021/01/12 03:31:07;;;;;;;0.7;0.7;;;;;;;-4;68.04492;936.8528;;;;
2021/01/12 03:33:32;;;;;;;0.8;0.8;;;;;;;-3.92;67.98047;936.8155;;;;
2021/01/12 03:35:57;;;;;;;0.8;0.6;;;;;;;-3.91;67.43066;936.8347;;;;
2021/01/12 03:38:22;;;;;;;3.4;1.1;;;;;;;-3.83;67.65332;936.8013;;;;
2021/01/12 03:40:47;;;;;;;4.1;1.6;;;;;;;-3.79;66.74414;936.8168;;;;
2021/01/12 03:43:12;;;;;;;1.2;0.9;;;;;;;-3.78;67.27539;936.8606;;;;
2021/01/12 03:45:37;;;;;;;1.1;0.7;;;;;;;-3.69;67.26855;936.8256;;;;
2021/01/12 03:48:02;;;;;;;1.2;0.9;;;;;;;-3.63;67.41113;936.8237;;;;
2021/01/12 03:50:28;;;;;;;9.6;1.5;;;;;;;-3.92;67.94727;936.7615;;;;
2021/01/12 03:52:54;;;;;;;3.5;1.2;;;;;;;-3.99;68.52246;936.7661;;;;
2021/01/12 03:55:18;;;;;;;1.3;0.5;;;;;;;-4.09;68.90332;936.7481;;;;
2021/01/12 03:57:43;;;;;;;0.8;0.6;;;;;;;-4.11;68.99805;936.7117;;;;
2021/01/12 04:02:30;;;;;;;0.5;0.5;;;;;;;-4.14;69.23633;936.7509;;;;
2021/01/12 04:04:55;;;;;;;1.6;1;;;;;;;-4.08;69.64258;936.838;;;;
2021/01/12 04:07:20;;;;;;;1;0.8;;;;;;;-3.93;69.1709;936.8491;;;;
2021/01/12 04:09:45;;;;;;;0.6;0.6;;;;;;;-3.75;68.57129;936.9131;;;;
2021/01/12 04:12:10;;;;;;;0.6;0.6;;;;;;;-3.68;68.92578;936.8792;;;;
2021/01/12 04:14:35;;;;;;;2.3;0.9;;;;;;;-3.59;69.20605;936.873;;;;
2021/01/12 04:17:00;;;;;;;1;0.9;;;;;;;-3.62;68.79297;936.8588;;;;
2021/01/12 04:19:25;;;;;;;1.3;1.2;;;;;;;-3.69;69.28906;936.8387;;;;
2021/01/12 04:21:51;;;;;;;1;0.8;;;;;;;-3.87;69.87695;936.8412;;;;
2021/01/12 04:24:16;;;;;;;2.3;1.1;;;;;;;-3.86;69.83398;936.7133;;;;
2021/01/12 04:26:41;;;;;;;1.5;0.5;;;;;;;-3.86;70.25391;936.7864;;;;
2021/01/12 04:29:06;;;;;;;1.4;1;;;;;;;-3.7;69.70703;936.7824;;;;
2021/01/12 04:31:31;;;;;;;1;0.9;;;;;;;-3.6;69.26953;936.837;;;;
2021/01/12 04:33:56;;;;;;;2.1;1.2;;;;;;;-3.51;68.9541;936.827;;;;
2021/01/12 04:36:22;;;;;;;0.9;0.7;;;;;;;-3.52;69.24023;936.7484;;;;
2021/01/12 04:38:47;;;;;;;0.5;0.4;;;;;;;-3.59;68.93945;936.715;;;;
2021/01/12 04:41:12;;;;;;;1.2;1;;;;;;;-3.63;68.96777;936.6192;;;;
2021/01/12 04:43:37;;;;;;;1.7;1.1;;;;;;;-3.54;68.9043;936.5756;;;;
2021/01/12 04:46:02;;;;;;;0.7;0.7;;;;;;;-3.43;68.63574;936.6117;;;;
2021/01/12 04:48:27;;;;;;;0.8;0.8;;;;;;;-3.4;68.07715;936.574;;;;
2021/01/12 04:50:52;;;;;;;0.7;0.6;;;;;;;-3.31;67.77148;936.5829;;;;
2021/01/12 04:53:17;;;;;;;1.5;1.1;;;;;;;-3.26;66.49805;936.6267;;;;
2021/01/12 04:55:43;;;;;;;0.7;0.7;;;;;;;-3.19;66.00879;936.6476;;;;
2021/01/12 04:58:08;;;;;;;1.6;0.6;;;;;;;-3.25;66.28906;936.6584;;;;
2021/01/12 05:00:33;;;;;;;1;0.9;;;;;;;-3.19;67.32422;936.6258;;;;
2021/01/12 05:02:58;;;;;;;1.6;1;;;;;;;-3.34;67.48926;936.6217;;;;
2021/01/12 05:05:23;;;;;;;0.4;0.4;;;;;;;-3.4;67.80078;936.6817;;;;
2021/01/12 05:07:48;;;;;;;0.7;0.7;;;;;;;-3.44;67.98242;936.6292;;;;
2021/01/12 05:10:13;;;;;;;9.7;1.1;;;;;;;-3.4;67.64648;936.587;;;;
2021/01/12 05:12:38;;;;;;;1.5;0.5;;;;;;;-3.3;67.26465;936.4917;;;;
2021/01/12 05:15:03;;;;;;;2.5;1.3;;;;;;;-3.52;67.31738;936.5336;;;;
2021/01/12 05:17:28;;;;;;;4.3;2.1;;;;;;;-3.52;67.61621;936.5171;;;;
2021/01/12 05:19:53;;;;;;;1.2;1.1;;;;;;;-3.65;68.04688;936.5159;;;;
2021/01/12 05:22:19;;;;;;;1.1;1;;;;;;;-4.05;69.60449;936.3883;;;;
2021/01/12 05:24:45;;;;;;;1.3;1.2;;;;;;;-4.14;70.70313;936.3781;;;;
2021/01/12 05:27:09;;;;;;;1.9;1.4;;;;;;;-4.16;71.52734;936.3237;;;;
2021/01/12 05:29:34;;;;;;;3.5;1;;;;;;;-4.15;71.61719;936.2347;;;;
2021/01/12 05:31:59;;;;;;;2.4;1.4;;;;;;;-4.23;71.80176;936.2374;;;;
2021/01/12 05:34:25;;;;;;;5.6;1.2;;;;;;;-4.37;72.3291;936.1262;;;;
2021/01/12 05:36:50;;;;;;;1.2;1;;;;;;;-4.37;72.15137;936.0973;;;;
2021/01/12 05:39:15;;;;;;;1.2;1;;;;;;;-4.41;72.14355;936.0634;;;;
2021/01/12 05:41:40;;;;;;;3.9;1.3;;;;;;;-4.45;72.40332;936.0374;;;;
2021/01/12 05:44:05;;;;;;;4.5;1.4;;;;;;;-4.66;73.31348;936.0728;;;;
2021/01/12 05:46:31;;;;;;;1.7;1.4;;;;;;;-4.7;73.71484;935.9717;;;;
2021/01/12 05:48:57;;;;;;;1;0.9;;;;;;;-4.67;73.71973;935.9991;;;;
2021/01/12 05:51:22;;;;;;;1.7;1.2;;;;;;;-4.74;73.38867;935.8997;;;;
2021/01/12 05:53:47;;;;;;;1.7;1.2;;;;;;;-4.73;73.26758;935.9705;;;;
2021/01/12 05:56:12;;;;;;;6.9;0.8;;;;;;;-4.76;73.2627;935.9821;;;;
2021/01/12 05:58:37;;;;;;;0.6;0.6;;;;;;;-4.82;73.30664;935.8779;;;;
2021/01/12 06:01:02;;;;;;;1.6;1.2;;;;;;;-4.82;73.56152;935.8337;;;;
2021/01/12 06:03:27;;;;;;;1.8;0.9;;;;;;;-4.77;73.5166;935.8708;;;;
2021/01/12 06:05:53;;;;;;;1.2;1.1;;;;;;;-4.7;73.35156;935.8497;;;;
2021/01/12 06:08:18;;;;;;;1.7;1;;;;;;;-4.61;73.40039;935.7459;;;;
2021/01/12 06:10:44;;;;;;;2.9;1.7;;;;;;;-4.51;72.81348;935.7999;;;;
2021/01/12 06:13:09;;;;;;;3;1.5;;;;;;;-4.32;72.42578;935.7267;;;;
2021/01/12 06:15:34;;;;;;;2.5;1.5;;;;;;;-4.2;71.87207;935.7567;;;;
2021/01/12 06:17:59;;;;;;;0.7;0.7;;;;;;;-4.02;71.30762;935.7889;;;;
2021/01/12 06:20:24;;;;;;;1.4;1.2;;;;;;;-4.04;71.75684;935.7902;;;;
2021/01/12 06:22:49;;;;;;;2.5;1.3;;;;;;;-3.84;70.86523;935.7806;;;;
2021/01/12 06:25:15;;;;;;;1;0.9;;;;;;;-3.77;70.52441;935.7307;;;;
2021/01/12 06:27:40;;;;;;;2;1;;;;;;;-3.66;70.0459;935.7866;;;;
2021/01/12 06:30:05;;;;;;;2;1.6;;;;;;;-3.66;69.80273;935.8784;;;;
2021/01/12 06:32:30;;;;;;;1.6;1.1;;;;;;;-3.58;69.46094;935.8491;;;;
2021/01/12 06:34:55;;;;;;;2.1;1.2;;;;;;;-3.59;69.64648;935.8248;;;;
2021/01/12 06:37:20;;;;;;;2.9;1.5;;;;;;;-3.59;69.45996;935.8828;;;;
2021/01/12 06:39:45;;;;;;;2.7;1;;;;;;;-3.69;69.75293;935.9381;;;;
2021/01/12 06:42:11;;;;;;;1.2;1.1;;;;;;;-3.77;69.77344;935.8239;;;;
2021/01/12 06:44:36;;;;;;;2.8;0.9;;;;;;;-3.79;70.10059;935.8647;;;;
2021/01/12 06:47:02;;;;;;;3.8;1.3;;;;;;;-3.64;69.85938;935.8668;;;;
2021/01/12 06:49:28;;;;;;;5;1.1;;;;;;;-3.58;69.00879;935.9275;;;;
2021/01/12 06:51:52;;;;;;;1.1;1;;;;;;;-3.69;69.38965;935.9889;;;;
2021/01/12 06:54:17;;;;;;;2.5;1.2;;;;;;;-3.69;69.3877;935.9055;;;;
2021/01/12 06:56:43;;;;;;;6.2;1.3;;;;;;;-3.69;70.19434;935.801;;;;
2021/01/12 06:59:07;;;;;;;3.1;0.9;;;;;;;-3.68;69.77637;935.8245;;;;
2021/01/12 07:01:32;;;;;;;5.1;0.9;;;;;;;-3.75;69.67773;935.6649;;;;
2021/01/12 07:03:58;;;;;;;1.7;1.3;;;;;;;-3.75;70.51367;935.6792;;;;
2021/01/12 07:06:23;;;;;;;0.7;0.7;;;;;;;-3.75;70.0498;935.6824;;;;
2021/01/12 07:08:48;;;;;;;6.1;1.6;;;;;;;-3.79;70.4209;935.605;;;;
2021/01/12 07:11:13;;;;;;;3.1;1.8;;;;;;;-3.88;70.58008;935.5829;;;;
2021/01/12 07:13:39;;;;;;;1.7;1.5;;;;;;;-3.99;71.02734;935.5826;;;;
2021/01/12 07:16:04;;;;;;;6.3;1.8;;;;;;;-3.83;70.77734;935.5414;;;;
2021/01/12 07:18:29;;;;;;;3.4;2.1;;;;;;;-3.82;70.64746;935.442;;;;
2021/01/12 07:20:54;;;;;;;4.5;3;;;;;;;-3.82;70.66797;935.4953;;;;
2021/01/12 07:23:19;;;;;;;3.7;2.3;;;;;;;-3.83;70.66797;935.5208;;;;
2021/01/12 07:25:44;;;;;;;2.5;2.3;;;;;;;-3.86;71.14746;935.4099;;;;
2021/01/12 07:28:09;;;;;;;7.7;2.8;;;;;;;-4.01;71.69531;935.5229;;;;
2021/01/12 07:30:34;;;;;;;4.9;1.7;;;;;;;-4;71.28906;935.5245;;;;
2021/01/12 07:32:59;;;;;;;4.7;2.3;;;;;;;-3.79;71.0166;935.5475;;;;
2021/01/12 07:35:25;;;;;;;4.2;2.9;;;;;;;-3.54;70.53906;935.5859;;;;
2021/01/12 07:37:50;;;;;;;4.3;1.9;;;;;;;-3.38;70.02441;935.6434;;;;
2021/01/12 07:40:15;;;;;;;4.8;2.9;;;;;;;-3.29;69.87402;935.6189;;;;
2021/01/12 07:42:40;;;;;;;5.3;3;;;;;;;-3.22;69.63184;935.6559;;;;
2021/01/12 07:45:05;;;;;;;4.1;2.6;;;;;;;-3.17;69.59473;935.6783;;;;
2021/01/12 07:47:30;;;;;;;8.1;4.8;;;;;;;-3.04;69.18652;935.6122;;;;
2021/01/12 07:49:56;;;;;;;13.7;5;;;;;;;-3.04;69.16406;935.623;;;;
2021/01/12 07:52:21;;;;;;;6.4;3.3;;;;;;;-3.01;68.96973;935.582;;;;
2021/01/12 07:54:47;;;;;;;2.3;1.2;;;;;;;-3;68.29688;935.5656;;;;
2021/01/12 07:57:12;;;;;;;3.9;2.5;;;;;;;-2.84;67.8916;935.5118;;;;
2021/01/12 07:59:37;;;;;;;22.7;3.8;;;;;;;-2.8;68.17578;935.4703;;;;
2021/01/12 08:02:02;;;;;;;3;2.1;;;;;;;-2.8;69.07129;935.3566;;;;
2021/01/12 08:04:27;;;;;;;3;2;;;;;;;-2.67;67.40039;935.3517;;;;
2021/01/12 08:06:52;;;;;;;2.8;1.8;;;;;;;-2.58;66.35059;935.327;;;;
2021/01/12 08:09:17;;;;;;;2.4;1.4;;;;;;;-2.6;65.95898;935.2363;;;;
2021/01/12 08:11:42;;;;;;;7.7;1.8;;;;;;;-2.6;65.91504;935.2332;;;;
2021/01/12 08:14:07;;;;;;;2.8;2;;;;;;;-2.69;66.41113;935.2354;;;;
2021/01/12 08:16:33;;;;;;;4.5;2.7;;;;;;;-2.83;67.21777;935.183;;;;
2021/01/12 08:18:58;;;;;;;3.5;1.6;;;;;;;-2.9;67.37207;935.0483;;;;
2021/01/12 08:21:23;;;;;;;4.6;2.8;;;;;;;-3.14;67.94141;935.0694;;;;
2021/01/12 08:23:48;;;;;;;3.2;1.5;;;;;;;-3.12;67.95703;935.0178;;;;
2021/01/12 08:26:13;;;;;;;3.2;2.1;;;;;;;-3.07;69.02734;935.2034;;;;
2021/01/12 08:28:38;;;;;;;3.7;1.7;;;;;;;-3.1;67.99316;935.0201;;;;
2021/01/12 08:31:04;;;;;;;8.1;3;;;;;;;-3.05;67.79102;935.0643;;;;
2021/01/12 08:33:29;;;;;;;59.1;23.3;;;;;;;-2.92;67.92383;935.088;;;;
2021/01/12 08:35:55;;;;;;;4.9;2.8;;;;;;;-2.8;67.38965;935.0979;;;;
2021/01/12 08:38:20;;;;;;;5.2;2.9;;;;;;;-2.49;66.84082;935.1012;;;;
2021/01/12 08:40:45;;;;;;;7.4;2.8;;;;;;;-2.24;66.42676;934.9553;;;;
2021/01/12 08:43:10;;;;;;;5.1;2.3;;;;;;;-1.86;66.15332;935.1848;;;;
2021/01/12 08:45:35;;;;;;;6;2.8;;;;;;;-1.6;64.94043;935.0719;;;;
2021/01/12 08:48:00;;;;;;;1.6;1.4;;;;;;;-1.3;63.81055;934.9775;;;;
2021/01/12 08:50:25;;;;;;;5.5;2.2;;;;;;;-1.13;63.20215;934.959;;;;
2021/01/12 08:52:51;;;;;;;6.7;2.4;;;;;;;-0.93;62.01074;934.9663;;;;
2021/01/12 08:55:16;;;;;;;8.6;3.8;;;;;;;-0.95;60.89648;934.9822;;;;
2021/01/12 08:57:41;;;;;;;5.1;3.8;;;;;;;-1.01;60.56348;934.9325;;;;
2021/01/12 09:00:06;;;;;;;14.8;5.9;;;;;;;-0.95;62.30664;934.8797;;;;
2021/01/12 09:02:31;;;;;;;6.1;3.6;;;;;;;-0.8;61.7627;934.9774;;;;
2021/01/12 09:04:56;;;;;;;7.8;3.7;;;;;;;-0.77;61.58984;934.832;;;;
2021/01/12 09:07:21;;;;;;;5.5;2.2;;;;;;;-0.81;61.35059;934.7784;;;;
2021/01/12 09:09:47;;;;;;;7;3.7;;;;;;;-1.02;61.9082;934.7645;;;;
2021/01/12 09:12:12;;;;;;;92.7;38.5;;;;;;;-1.04;61.7168;934.6792;;;;
2021/01/12 09:14:37;;;;;;;179.8;78;;;;;;;-1.07;61.91309;934.713;;;;
2021/01/12 09:17:03;;;;;;;16.5;7.7;;;;;;;-1.2;62.26953;934.6211;;;;
2021/01/12 09:19:27;;;;;;;13.8;3.7;;;;;;;-1.15;62.05469;934.7262;;;;
2021/01/12 09:21:52;;;;;;;8.2;5.3;;;;;;;-1.06;61.66797;934.5298;;;;
2021/01/12 09:24:18;;;;;;;12.6;5.1;;;;;;;-1.13;61.21289;934.6311;;;;
2021/01/12 09:26:43;;;;;;;11.7;7.4;;;;;;;-1;62.50977;934.5558;;;;
2021/01/12 09:29:09;;;;;;;15.8;4.5;;;;;;;-0.78;61.73145;934.4666;;;;
2021/01/12 09:31:33;;;;;;;14.6;5.2;;;;;;;-0.63;60.91992;934.6567;;;;
2021/01/12 09:33:58;;;;;;;13.1;4.8;;;;;;;-0.75;61.43555;934.7202;;;;
2021/01/12 09:36:25;;;;;;;8.5;6;;;;;;;-0.72;60.68457;934.5349;;;;
2021/01/12 09:38:49;;;;;;;5.8;3.2;;;;;;;-0.79;60.45117;934.6082;;;;
2021/01/12 09:41:14;;;;;;;13.3;3.2;;;;;;;-0.76;59.92285;934.5581;;;;
2021/01/12 09:43:39;;;;;;;4.2;2.8;;;;;;;-0.82;60.80371;934.4716;;;;
2021/01/12 09:46:04;;;;;;;2.9;2.2;;;;;;;-0.74;59.99121;934.4384;;;;
2021/01/12 09:48:29;;;;;;;5.9;2.2;;;;;;;-0.6;59.56641;934.3544;;;;
2021/01/12 09:50:54;;;;;;;1.9;1.3;;;;;;;-0.39;59.56348;934.1716;;;;
2021/01/12 09:53:20;;;;;;;14;3.1;;;;;;;-0.46;59.09766;934.2536;;;;
2021/01/12 09:55:45;;;;;;;5.3;2.3;;;;;;;-0.31;59.05078;934.0912;;;;
2021/01/12 09:58:10;;;;;;;3.4;2.1;;;;;;;-0.25;60.44043;934.0234;;;;
2021/01/12 10:00:35;;;;;;;4;2.2;;;;;;;-0.03;58.23242;934.0108;;;;
2021/01/12 10:03:00;;;;;;;7.8;3.1;;;;;;;0.18;58.52832;933.9476;;;;
2021/01/12 10:05:25;;;;;;;5.7;3.1;;;;;;;0.34;57.6709;933.9099;;;;
2021/01/12 10:07:50;;;;;;;5.7;3.3;;;;;;;0.54;57.20703;933.875;;;;
2021/01/12 10:10:15;;;;;;;9.8;2.6;;;;;;;0.47;56.20605;933.7494;;;;
2021/01/12 10:12:40;;;;;;;10;2.6;;;;;;;0.44;56.5127;933.6917;;;;
2021/01/12 10:15:05;;;;;;;8.4;2.7;;;;;;;0.62;56.31445;933.7459;;;;
2021/01/12 10:17:31;;;;;;;11.2;4.5;;;;;;;0.73;56.76367;933.7897;;;;
2021/01/12 10:19:56;;;;;;;10;3;;;;;;;0.51;57.64941;933.6853;;;;
2021/01/12 10:22:21;;;;;;;5.8;2.7;;;;;;;0.59;56.46777;933.618;;;;
2021/01/12 10:24:46;;;;;;;8.1;2.3;;;;;;;0.8;57.43164;933.5812;;;;
2021/01/12 10:27:11;;;;;;;4.5;2.5;;;;;;;0.73;54.97852;933.5967;;;;
2021/01/12 10:29:37;;;;;;;8.5;2.8;;;;;;;0.8;55.71289;933.4655;;;;
2021/01/12 10:32:01;;;;;;;5.1;2.9;;;;;;;0.75;57.62695;933.2475;;;;
2021/01/12 10:34:26;;;;;;;6.8;3.8;;;;;;;0.89;57.04199;933.2747;;;;
2021/01/12 10:36:52;;;;;;;12.2;4.5;;;;;;;1.01;56.86816;933.3164;;;;
2021/01/12 10:39:17;;;;;;;15;3.1;;;;;;;1.02;54.43555;933.1576;;;;
2021/01/12 10:41:42;;;;;;;9.2;4.5;;;;;;;1.11;55.20605;933.2336;;;;
2021/01/12 10:44:07;;;;;;;6;2.8;;;;;;;1.01;56.85742;932.9706;;;;
2021/01/12 10:46:32;;;;;;;13.9;4;;;;;;;1.04;57.20801;932.9861;;;;
2021/01/12 10:48:57;;;;;;;2.5;1.7;;;;;;;1.03;55.77734;932.8506;;;;
2021/01/12 10:51:22;;;;;;;8.9;3.1;;;;;;;1.12;55.28711;932.923;;;;
2021/01/12 10:53:47;;;;;;;8;3;;;;;;;1.35;56.09863;932.9673;;;;
2021/01/12 10:56:12;;;;;;;3.4;2;;;;;;;1.6;55.15918;932.928;;;;
2021/01/12 10:58:37;;;;;;;12.6;3.6;;;;;;;1.63;55.1084;932.954;;;;
2021/01/12 11:01:04;;;;;;;14.5;2.9;;;;;;;1.27;55.77441;932.7315;;;;
2021/01/12 11:03:29;;;;;;;5.4;2.7;;;;;;;1.01;56.34473;932.7075;;;;
2021/01/12 11:05:55;;;;;;;16.9;4.7;;;;;;;0.93;58.08594;932.8248;;;;
2021/01/12 11:08:19;;;;;;;4.6;2.2;;;;;;;1.1;55.6748;932.4635;;;;
2021/01/12 11:10:45;;;;;;;6.4;2.2;;;;;;;1.35;56.56836;932.5359;;;;
2021/01/12 11:13:09;;;;;;;14.3;3.1;;;;;;;1.42;56.60059;932.4336;;;;
2021/01/12 11:15:39;;;;;;;5.8;2.5;;;;;;;1.46;57.48926;932.6138;;;;
2021/01/12 11:18:00;;;;;;;6.1;3;;;;;;;1.49;58.23047;932.6556;;;;
2021/01/12 11:20:25;;;;;;;4.2;2.1;;;;;;;1.53;55.78809;932.5261;;;;
2021/01/12 11:22:50;;;;;;;9.7;2.9;;;;;;;1.58;56.95605;932.588;;;;
2021/01/12 11:25:15;;;;;;;23.8;5.7;;;;;;;1.29;58.13477;932.7575;;;;
2021/01/12 11:27:40;;;;;;;4.9;2.4;;;;;;;0.94;57.55176;932.2438;;;;
2021/01/12 11:30:05;;;;;;;3.8;1.6;;;;;;;0.8;59.8877;932.5284;;;;
2021/01/12 11:32:30;;;;;;;7.8;2.6;;;;;;;0.9;57.03418;932.4455;;;;
2021/01/12 11:34:56;;;;;;;6.7;2.4;;;;;;;1.14;56.81836;932.4547;;;;
2021/01/12 11:37:22;;;;;;;7.8;3.4;;;;;;;1.02;58.15527;932.4288;;;;
2021/01/12 11:39:46;;;;;;;2.7;1.8;;;;;;;0.81;58.25879;932.1881;;;;
2021/01/12 11:42:11;;;;;;;3.2;1.9;;;;;;;0.72;59.44043;932.27;;;;
2021/01/12 11:44:36;;;;;;;2;1.6;;;;;;;0.92;56.94531;932.449;;;;
2021/01/12 11:47:01;;;;;;;3.6;2;;;;;;;1.08;57.06836;932.2536;;;;
2021/01/12 11:49:27;;;;;;;3.5;2.3;;;;;;;1.02;57.58594;932.1231;;;;
2021/01/12 11:51:53;;;;;;;15.4;4.3;;;;;;;1.17;57.61523;932.2659;;;;
2021/01/12 11:54:19;;;;;;;6.6;2.7;;;;;;;1.18;58.95898;932.1661;;;;
2021/01/12 11:56:44;;;;;;;3.8;2.3;;;;;;;1.39;58.03711;932.1349;;;;
2021/01/12 11:59:09;;;;;;;9.4;4;;;;;;;1.58;58.18652;932.0676;;;;
2021/01/12 12:01:34;;;;;;;22.3;5.2;;;;;;;1.5;59.11523;932.1266;;;;
2021/01/12 12:04:00;;;;;;;9.2;3.1;;;;;;;1.5;59.70801;931.91;;;;
2021/01/12 12:06:24;;;;;;;8.7;4.1;;;;;;;1.75;58.59082;932.0033;;;;
2021/01/12 12:08:50;;;;;;;7.1;3.5;;;;;;;1.78;58.03516;931.9664;;;;
2021/01/12 12:11:15;;;;;;;5.8;2.2;;;;;;;1.82;58.64453;931.9138;;;;
2021/01/12 12:13:43;;;;;;;15;3.6;;;;;;;2.11;58.24805;931.8546;;;;
2021/01/12 12:16:05;;;;;;;8.8;3;;;;;;;2.1;57.84375;931.8292;;;;
2021/01/12 12:18:31;;;;;;;12.8;5.2;;;;;;;2.34;58.15625;931.8003;;;;
2021/01/12 12:20:56;;;;;;;4.8;2.6;;;;;;;2.37;59.09082;931.755;;;;
2021/01/12 12:23:21;;;;;;;12.6;3.5;;;;;;;2.53;58.38477;931.8478;;;;
2021/01/12 12:25:47;;;;;;;5.3;2.6;;;;;;;2.77;58.58496;931.7332;;;;
2021/01/12 12:28:12;;;;;;;7.8;3.3;;;;;;;2.74;59.47852;931.6868;;;;
2021/01/12 12:30:37;;;;;;;5.2;3.4;;;;;;;2.9;60.23047;931.6216;;;;
2021/01/12 12:33:02;;;;;;;15.4;4.6;;;;;;;2.96;59.06055;931.6834;;;;
2021/01/12 12:35:27;;;;;;;4.2;2.1;;;;;;;2.39;59.61816;931.5779;;;;
2021/01/12 12:37:52;;;;;;;6.7;3.4;;;;;;;2.46;61.45605;931.5936;;;;
2021/01/12 12:40:19;;;;;;;3.5;2.3;;;;;;;2.72;59.98047;931.5439;;;;
2021/01/12 12:42:42;;;;;;;5;2.5;;;;;;;2.87;59.81055;931.5247;;;;
2021/01/12 12:45:08;;;;;;;8.1;3.1;;;;;;;3.04;60.55273;931.5664;;;;
2021/01/12 12:47:33;;;;;;;26.1;5;;;;;;;3.13;60.50781;931.5938;;;;
2021/01/12 12:49:58;;;;;;;4.2;2.2;;;;;;;3.13;62.34961;931.4335;;;;
2021/01/12 12:52:23;;;;;;;6.3;2.2;;;;;;;3.45;63.34082;931.332;;;;
2021/01/12 12:54:48;;;;;;;3.5;2.3;;;;;;;3.54;61.22949;931.3427;;;;
2021/01/12 12:57:13;;;;;;;3.2;1.9;;;;;;;3.75;61.05762;931.322;;;;
2021/01/12 12:59:38;;;;;;;4.5;2.4;;;;;;;3.77;61.51074;931.2045;;;;
2021/01/12 13:02:04;;;;;;;9.3;4.2;;;;;;;3.73;61.39355;931.2083;;;;
2021/01/12 13:04:29;;;;;;;10.7;4.3;;;;;;;3.73;60.31445;931.1807;;;;
2021/01/12 13:06:55;;;;;;;6.3;3.2;;;;;;;3.87;60.51367;931.0535;;;;
2021/01/12 13:09:20;;;;;;;3.9;2;;;;;;;4.06;59.35938;931.0296;;;;
2021/01/12 13:11:45;;;;;;;10.4;2.8;;;;;;;4.16;60.08203;931.113;;;;
2021/01/12 13:14:10;;;;;;;10.7;5;;;;;;;4.23;60.22754;931.1156;;;;
2021/01/12 13:16:35;;;;;;;9;3.6;;;;;;;4.43;60.22168;931.1099;;;;
2021/01/12 13:19:01;;;;;;;7;3.4;;;;;;;4.54;60.8457;931.0664;;;;
2021/01/12 13:21:25;;;;;;;18.4;2.5;;;;;;;4.26;61.28906;931.0807;;;;
2021/01/12 13:23:51;;;;;;;13.6;3.6;;;;;;;4.11;62.29199;931.1206;;;;
2021/01/12 13:26:16;;;;;;;3.7;2.3;;;;;;;4;62.17285;930.9965;;;;
2021/01/12 13:28:41;;;;;;;2;1.1;;;;;;;4.09;62.08496;931.0532;;;;
2021/01/12 13:31:06;;;;;;;7.7;2.9;;;;;;;4.25;62.43555;930.9883;;;;
2021/01/12 13:33:31;;;;;;;1.5;0.7;;;;;;;4.4;61.90625;930.9166;;;;
2021/01/12 13:35:56;;;;;;;0.9;0.7;;;;;;;4.7;61.03711;930.8837;;;;
2021/01/12 13:38:21;;;;;;;1.8;1.4;;;;;;;5;60.46094;930.9053;;;;
2021/01/12 13:40:46;;;;;;;8.4;2.8;;;;;;;5.09;60.43848;930.9056;;;;
2021/01/12 13:43:11;;;;;;;1;0.6;;;;;;;4.72;62.07617;930.9581;;;;
2021/01/12 13:45:36;;;;;;;3.1;0.7;;;;;;;4.82;62.6084;930.8901;;;;
2021/01/12 13:48:02;;;;;;;2;1.2;;;;;;;4.79;62.33398;930.8996;;;;
2021/01/12 13:50:27;;;;;;;0.5;0.5;;;;;;;4.59;64.47852;930.8741;;;;
2021/01/12 13:52:52;;;;;;;3.3;1.2;;;;;;;4.85;63.83105;930.8259;;;;
2021/01/12 13:55:17;;;;;;;1.9;1;;;;;;;4.95;63.74414;930.9366;;;;
2021/01/12 13:57:42;;;;;;;0.5;0.5;;;;;;;5.02;63.23535;930.8042;;;;
2021/01/12 14:00:07;;;;;;;1.1;0.9;;;;;;;4.99;64.05371;930.9658;;;;
2021/01/12 14:02:33;;;;;;;2.6;0.9;;;;;;;5.08;64.93555;930.851;;;;
2021/01/12 14:04:57;;;;;;;0.3;0.3;;;;;;;4.89;64.45605;930.8551;;;;
2021/01/12 14:07:23;;;;;;;1.5;1;;;;;;;4.83;65.35938;930.7949;;;;
2021/01/12 14:09:48;;;;;;;0.8;0.8;;;;;;;4.9;65.47266;930.7978;;;;
2021/01/12 14:12:13;;;;;;;0.9;0.5;;;;;;;4.94;65.49023;930.9146;;;;
2021/01/12 14:14:38;;;;;;;1.8;0.7;;;;;;;4.57;68.01172;930.6333;;;;
2021/01/12 14:17:03;;;;;;;4.8;1.4;;;;;;;4.72;67.6084;930.8257;;;;
2021/01/12 14:19:28;;;;;;;1.2;0.9;;;;;;;4.72;67.33594;930.9155;;;;